sensor_id;sensor_type;location;lat;lon;timestamp;pressure;altitude;pressure_sealevel;temperature;humidity
41632;BME280;37452;51.938;4.624;2023-04-07T00:01:35;77326.25;;;-142.75;100.00
41632;BME280;37452;51.938;4.624;2023-04-07T00:04:01;77318.38;;;-142.75;100.00
41632;BME280;37452;51.938;4.624;2023-04-07T00:06:26;77318.38;;;-142.75;100.00
41632;BME280;37452;51.938;4.624;2023-04-07T00:08:53;77314.44;;;-142.75;100.00
41632;BME280;37452;51.938;4.624;2023-04-07T00:11:18;77326.25;;;-142.75;100.00
41632;BME280;37452;51.938;4.624;2023-04-07T00:13:43;77322.31;;;-142.75;100.00
41632;BME280;37452;51.938;4.624;2023-04-07T00:16:09;77314.44;;;-142.75;100.00
41632;BME280;37452;51.938;4.624;2023-04-07T00:18:34;77306.56;;;-142.75;100.00
41632;BME280;37452;51.938;4.624;2023-04-07T00:21:00;77308.53;;;-142.75;100.00
41632;BME280;37452;51.938;4.624;2023-04-07T00:23:25;77306.56;;;-142.75;100.00
41632;BME280;37452;51.938;4.624;2023-04-07T00:25:51;77310.50;;;-142.75;100.00
41632;BME280;37452;51.938;4.624;2023-04-07T00:28:16;77306.56;;;-142.75;100.00
41632;BME280;37452;51.938;4.624;2023-04-07T00:30:42;77310.50;;;-142.75;100.00
41632;BME280;37452;51.938;4.624;2023-04-07T00:33:07;77306.56;;;-142.75;100.00
41632;BME280;37452;51.938;4.624;2023-04-07T00:35:32;77310.50;;;-142.75;100.00
41632;BME280;37452;51.938;4.624;2023-04-07T00:37:57;77312.47;;;-142.75;100.00
41632;BME280;37452;51.938;4.624;2023-04-07T00:40:23;77302.63;;;-142.75;100.00
41632;BME280;37452;51.938;4.624;2023-04-07T00:42:48;77306.56;;;-142.75;100.00
41632;BME280;37452;51.938;4.624;2023-04-07T00:45:14;77318.38;;;-142.75;100.00
41632;BME280;37452;51.938;4.624;2023-04-07T00:47:40;77318.38;;;-142.75;100.00
41632;BME280;37452;51.938;4.624;2023-04-07T00:50:06;77326.25;;;-142.75;100.00
41632;BME280;37452;51.938;4.624;2023-04-07T00:52:32;77336.09;;;-142.75;100.00
41632;BME280;37452;51.938;4.624;2023-04-07T00:54:58;77338.06;;;-142.75;100.00
41632;BME280;37452;51.938;4.624;2023-04-07T00:57:24;77334.13;;;-142.75;100.00
41632;BME280;37452;51.938;4.624;2023-04-07T00:59:53;77330.19;;;-142.75;100.00
41632;BME280;37452;51.938;4.624;2023-04-07T01:07:27;77371.53;;;-142.75;100.00
41632;BME280;37452;51.938;4.624;2023-04-07T01:09:57;77357.75;;;-142.75;100.00
41632;BME280;37452;51.938;4.624;2023-04-07T01:12:53;77371.53;;;-142.75;100.00
41632;BME280;37452;51.938;4.624;2023-04-07T01:15:21;77373.50;;;-142.75;100.00
41632;BME280;37452;51.938;4.624;2023-04-07T01:17:52;77395.16;;;-142.75;100.00
41632;BME280;37452;51.938;4.624;2023-04-07T01:20:21;77405.00;;;-142.75;100.00
41632;BME280;37452;51.938;4.624;2023-04-07T01:22:53;77412.88;;;-142.75;100.00
41632;BME280;37452;51.938;4.624;2023-04-07T01:30:28;77460.13;;;-142.75;100.00
41632;BME280;37452;51.938;4.624;2023-04-07T01:32:57;77456.22;;;-142.75;100.00
41632;BME280;37452;51.938;4.624;2023-04-07T01:35:23;77475.91;;;-142.75;100.00
41632;BME280;37452;51.938;4.624;2023-04-07T01:37:51;77470.00;;;-142.75;100.00
41632;BME280;37452;51.938;4.624;2023-04-07T01:40:17;77483.78;;;-142.75;100.00
41632;BME280;37452;51.938;4.624;2023-04-07T01:42:44;77493.63;;;-142.75;100.00
41632;BME280;37452;51.938;4.624;2023-04-07T01:45:11;77495.59;;;-142.75;100.00
41632;BME280;37452;51.938;4.624;2023-04-07T01:47:38;77495.59;;;-142.75;100.00
41632;BME280;37452;51.938;4.624;2023-04-07T01:50:04;77491.66;;;-142.75;100.00
41632;BME280;37452;51.938;4.624;2023-04-07T01:52:34;77501.50;;;-142.75;100.00
41632;BME280;37452;51.938;4.624;2023-04-07T01:55:00;77491.66;;;-142.75;100.00
41632;BME280;37452;51.938;4.624;2023-04-07T01:57:25;77497.56;;;-142.75;100.00
41632;BME280;37452;51.938;4.624;2023-04-07T01:59:51;77485.75;;;-142.75;100.00
41632;BME280;37452;51.938;4.624;2023-04-07T02:02:17;77479.84;;;-142.75;100.00
41632;BME280;37452;51.938;4.624;2023-04-07T02:04:53;77477.88;;;-142.75;100.00
41632;BME280;37452;51.938;4.624;2023-04-07T02:07:47;77471.97;;;-142.75;100.00
41632;BME280;37452;51.938;4.624;2023-04-07T02:10:15;77487.72;;;-142.75;100.00
41632;BME280;37452;51.938;4.624;2023-04-07T02:12:42;77491.66;;;-142.75;100.00
41632;BME280;37452;51.938;4.624;2023-04-07T02:15:11;77493.63;;;-142.75;100.00
41632;BME280;37452;51.938;4.624;2023-04-07T02:17:40;77487.72;;;-142.75;100.00
41632;BME280;37452;51.938;4.624;2023-04-07T02:20:07;77477.88;;;-142.75;100.00
41632;BME280;37452;51.938;4.624;2023-04-07T02:22:34;77481.81;;;-142.75;100.00
41632;BME280;37452;51.938;4.624;2023-04-07T02:24:59;77483.78;;;-142.75;100.00
41632;BME280;37452;51.938;4.624;2023-04-07T02:27:25;77470.00;;;-142.75;100.00
41632;BME280;37452;51.938;4.624;2023-04-07T02:29:50;77468.03;;;-142.75;100.00
41632;BME280;37452;51.938;4.624;2023-04-07T02:32:15;77456.22;;;-142.75;100.00
41632;BME280;37452;51.938;4.624;2023-04-07T02:34:42;77454.25;;;-142.75;100.00
41632;BME280;37452;51.938;4.624;2023-04-07T02:37:07;77464.09;;;-142.75;100.00
41632;BME280;37452;51.938;4.624;2023-04-07T02:39:32;77462.13;;;-142.75;100.00
41632;BME280;37452;51.938;4.624;2023-04-07T02:41:57;77456.22;;;-142.75;100.00
41632;BME280;37452;51.938;4.624;2023-04-07T02:44:23;77460.13;;;-142.75;100.00
41632;BME280;37452;51.938;4.624;2023-04-07T02:46:48;77481.81;;;-142.75;100.00
41632;BME280;37452;51.938;4.624;2023-04-07T02:49:13;77466.03;;;-142.75;100.00
41632;BME280;37452;51.938;4.624;2023-04-07T02:51:39;77468.03;;;-142.75;100.00
41632;BME280;37452;51.938;4.624;2023-04-07T02:54:04;77468.03;;;-142.75;100.00
41632;BME280;37452;51.938;4.624;2023-04-07T02:56:29;77468.03;;;-142.75;100.00
41632;BME280;37452;51.938;4.624;2023-04-07T02:58:55;77479.84;;;-142.75;100.00
41632;BME280;37452;51.938;4.624;2023-04-07T03:01:20;77470.00;;;-142.75;100.00
41632;BME280;37452;51.938;4.624;2023-04-07T03:03:46;77471.97;;;-142.75;100.00
41632;BME280;37452;51.938;4.624;2023-04-07T03:06:12;77468.03;;;-142.75;100.00
41632;BME280;37452;51.938;4.624;2023-04-07T03:08:37;77468.03;;;-142.75;100.00
41632;BME280;37452;51.938;4.624;2023-04-07T03:11:03;77454.25;;;-142.75;100.00
41632;BME280;37452;51.938;4.624;2023-04-07T03:13:28;77452.25;;;-142.75;100.00
41632;BME280;37452;51.938;4.624;2023-04-07T03:15:55;77450.28;;;-142.75;100.00
41632;BME280;37452;51.938;4.624;2023-04-07T03:18:20;77444.38;;;-142.75;100.00
41632;BME280;37452;51.938;4.624;2023-04-07T03:20:47;77442.41;;;-142.75;100.00
41632;BME280;37452;51.938;4.624;2023-04-07T03:23:13;77446.34;;;-142.75;100.00
41632;BME280;37452;51.938;4.624;2023-04-07T03:25:38;77434.53;;;-142.75;100.00
41632;BME280;37452;51.938;4.624;2023-04-07T03:28:04;77424.69;;;-142.75;100.00
41632;BME280;37452;51.938;4.624;2023-04-07T03:30:29;77422.72;;;-142.75;100.00
41632;BME280;37452;51.938;4.624;2023-04-07T03:32:54;77422.72;;;-142.75;100.00
41632;BME280;37452;51.938;4.624;2023-04-07T03:35:19;77428.63;;;-142.75;100.00
41632;BME280;37452;51.938;4.624;2023-04-07T03:37:45;77422.72;;;-142.75;100.00
41632;BME280;37452;51.938;4.624;2023-04-07T03:40:10;77418.78;;;-142.75;100.00
41632;BME280;37452;51.938;4.624;2023-04-07T03:42:36;77414.84;;;-142.75;100.00
41632;BME280;37452;51.938;4.624;2023-04-07T03:45:01;77416.81;;;-142.75;100.00
41632;BME280;37452;51.938;4.624;2023-04-07T03:47:27;77401.06;;;-142.75;100.00
41632;BME280;37452;51.938;4.624;2023-04-07T03:49:52;77408.94;;;-142.75;100.00
41632;BME280;37452;51.938;4.624;2023-04-07T03:52:17;77406.97;;;-142.75;100.00
41632;BME280;37452;51.938;4.624;2023-04-07T03:54:43;77405.00;;;-142.75;100.00
41632;BME280;37452;51.938;4.624;2023-04-07T03:57:08;77412.88;;;-142.75;100.00
41632;BME280;37452;51.938;4.624;2023-04-07T03:59:34;77408.94;;;-142.75;100.00
41632;BME280;37452;51.938;4.624;2023-04-07T04:02:00;77420.75;;;-142.75;100.00
41632;BME280;37452;51.938;4.624;2023-04-07T04:04:25;77410.91;;;-142.75;100.00
41632;BME280;37452;51.938;4.624;2023-04-07T04:06:50;77410.91;;;-142.75;100.00
41632;BME280;37452;51.938;4.624;2023-04-07T04:09:16;77414.84;;;-142.75;100.00
41632;BME280;37452;51.938;4.624;2023-04-07T04:11:41;77406.97;;;-142.75;100.00
41632;BME280;37452;51.938;4.624;2023-04-07T04:14:09;77397.13;;;-142.75;100.00
41632;BME280;37452;51.938;4.624;2023-04-07T04:16:34;77405.00;;;-142.75;100.00
41632;BME280;37452;51.938;4.624;2023-04-07T04:19:00;77406.97;;;-142.75;100.00
41632;BME280;37452;51.938;4.624;2023-04-07T04:21:26;77397.13;;;-142.75;100.00
41632;BME280;37452;51.938;4.624;2023-04-07T04:23:52;77408.94;;;-142.75;100.00
41632;BME280;37452;51.938;4.624;2023-04-07T04:26:17;77416.81;;;-142.75;100.00
41632;BME280;37452;51.938;4.624;2023-04-07T04:28:42;77424.69;;;-142.75;100.00
41632;BME280;37452;51.938;4.624;2023-04-07T04:31:08;77403.03;;;-142.75;100.00
41632;BME280;37452;51.938;4.624;2023-04-07T04:33:33;77412.88;;;-142.75;100.00
41632;BME280;37452;51.938;4.624;2023-04-07T04:35:58;77428.63;;;-142.75;100.00
41632;BME280;37452;51.938;4.624;2023-04-07T04:38:24;77432.56;;;-142.75;100.00
41632;BME280;37452;51.938;4.624;2023-04-07T04:40:49;77422.72;;;-142.75;100.00
41632;BME280;37452;51.938;4.624;2023-04-07T04:43:14;77420.75;;;-142.75;100.00
41632;BME280;37452;51.938;4.624;2023-04-07T04:45:40;77428.63;;;-142.75;100.00
41632;BME280;37452;51.938;4.624;2023-04-07T04:48:05;77434.53;;;-142.75;100.00
41632;BME280;37452;51.938;4.624;2023-04-07T04:50:31;77422.72;;;-142.75;100.00
41632;BME280;37452;51.938;4.624;2023-04-07T04:52:56;77412.88;;;-142.75;100.00
41632;BME280;37452;51.938;4.624;2023-04-07T04:55:21;77405.00;;;-142.75;100.00
41632;BME280;37452;51.938;4.624;2023-04-07T04:57:46;77420.75;;;-142.75;100.00
41632;BME280;37452;51.938;4.624;2023-04-07T05:00:12;77408.94;;;-142.75;100.00
41632;BME280;37452;51.938;4.624;2023-04-07T05:02:38;77410.91;;;-142.75;100.00
41632;BME280;37452;51.938;4.624;2023-04-07T05:05:03;77418.78;;;-142.75;100.00
41632;BME280;37452;51.938;4.624;2023-04-07T05:07:29;77422.72;;;-142.75;100.00
41632;BME280;37452;51.938;4.624;2023-04-07T05:09:54;77440.44;;;-142.75;100.00
41632;BME280;37452;51.938;4.624;2023-04-07T05:12:20;77428.63;;;-142.75;100.00
41632;BME280;37452;51.938;4.624;2023-04-07T05:14:45;77428.63;;;-142.75;100.00
41632;BME280;37452;51.938;4.624;2023-04-07T05:17:11;77420.75;;;-142.75;100.00
41632;BME280;37452;51.938;4.624;2023-04-07T05:19:36;77436.50;;;-142.75;100.00
41632;BME280;37452;51.938;4.624;2023-04-07T05:22:01;77420.75;;;-142.75;100.00
41632;BME280;37452;51.938;4.624;2023-04-07T05:24:28;77422.72;;;-142.75;100.00
41632;BME280;37452;51.938;4.624;2023-04-07T05:26:53;77438.47;;;-142.75;100.00
41632;BME280;37452;51.938;4.624;2023-04-07T05:29:18;77432.56;;;-142.75;100.00
41632;BME280;37452;51.938;4.624;2023-04-07T05:31:44;77450.28;;;-142.75;100.00
41632;BME280;37452;51.938;4.624;2023-04-07T05:34:09;77448.34;;;-142.75;100.00
41632;BME280;37452;51.938;4.624;2023-04-07T05:36:35;77464.09;;;-142.75;100.00
41632;BME280;37452;51.938;4.624;2023-04-07T05:39:00;77473.94;;;-142.75;100.00
41632;BME280;37452;51.938;4.624;2023-04-07T05:41:25;77483.78;;;-142.75;100.00
41632;BME280;37452;51.938;4.624;2023-04-07T05:43:51;77479.84;;;-142.75;100.00
41632;BME280;37452;51.938;4.624;2023-04-07T05:46:16;77470.00;;;-142.75;100.00
41632;BME280;37452;51.938;4.624;2023-04-07T05:48:42;77473.94;;;-142.75;100.00
41632;BME280;37452;51.938;4.624;2023-04-07T05:51:07;77464.09;;;-142.75;100.00
41632;BME280;37452;51.938;4.624;2023-04-07T05:53:32;77487.72;;;-142.75;100.00
41632;BME280;37452;51.938;4.624;2023-04-07T05:55:57;77475.91;;;-142.75;100.00
41632;BME280;37452;51.938;4.624;2023-04-07T05:58:23;77481.81;;;-142.75;100.00
41632;BME280;37452;51.938;4.624;2023-04-07T06:00:49;77475.91;;;-142.75;100.00
41632;BME280;37452;51.938;4.624;2023-04-07T06:03:14;77483.78;;;-142.75;100.00
41632;BME280;37452;51.938;4.624;2023-04-07T06:05:39;77515.28;;;-142.75;100.00
41632;BME280;37452;51.938;4.624;2023-04-07T06:08:10;77503.47;;;-142.75;100.00
41632;BME280;37452;51.938;4.624;2023-04-07T06:10:35;77507.41;;;-142.75;100.00
41632;BME280;37452;51.938;4.624;2023-04-07T06:13:01;77503.47;;;-142.75;100.00
41632;BME280;37452;51.938;4.624;2023-04-07T06:15:26;77509.38;;;-142.75;100.00
41632;BME280;37452;51.938;4.624;2023-04-07T06:17:51;77513.31;;;-142.75;100.00
41632;BME280;37452;51.938;4.624;2023-04-07T06:20:17;77519.22;;;-142.75;100.00
41632;BME280;37452;51.938;4.624;2023-04-07T06:22:44;77511.34;;;-142.75;100.00
41632;BME280;37452;51.938;4.624;2023-04-07T06:25:09;77505.44;;;-142.75;100.00
41632;BME280;37452;51.938;4.624;2023-04-07T06:27:35;77497.56;;;-142.75;100.00
41632;BME280;37452;51.938;4.624;2023-04-07T06:30:00;77509.38;;;-142.75;100.00
41632;BME280;37452;51.938;4.624;2023-04-07T06:32:25;77503.47;;;-142.75;100.00
41632;BME280;37452;51.938;4.624;2023-04-07T06:34:51;77501.50;;;-142.75;100.00
41632;BME280;37452;51.938;4.624;2023-04-07T06:37:16;77495.59;;;-142.75;100.00
41632;BME280;37452;51.938;4.624;2023-04-07T06:39:42;77499.53;;;-142.75;100.00
41632;BME280;37452;51.938;4.624;2023-04-07T06:42:07;77503.47;;;-142.75;100.00
41632;BME280;37452;51.938;4.624;2023-04-07T06:44:33;77499.53;;;-142.75;100.00
41632;BME280;37452;51.938;4.624;2023-04-07T06:46:58;77481.81;;;-142.75;100.00
41632;BME280;37452;51.938;4.624;2023-04-07T06:49:23;77479.84;;;-142.75;100.00
41632;BME280;37452;51.938;4.624;2023-04-07T06:51:49;77466.03;;;-142.75;100.00
41632;BME280;37452;51.938;4.624;2023-04-07T06:54:14;77483.78;;;-142.75;100.00
41632;BME280;37452;51.938;4.624;2023-04-07T06:56:41;77479.84;;;-142.75;100.00
41632;BME280;37452;51.938;4.624;2023-04-07T06:59:06;77477.88;;;-142.75;100.00
41632;BME280;37452;51.938;4.624;2023-04-07T07:01:32;77491.66;;;-142.75;100.00
41632;BME280;37452;51.938;4.624;2023-04-07T07:03:58;77491.66;;;-142.75;100.00
41632;BME280;37452;51.938;4.624;2023-04-07T07:06:25;77495.59;;;-142.75;100.00
41632;BME280;37452;51.938;4.624;2023-04-07T07:08:50;77507.41;;;-142.75;100.00
41632;BME280;37452;51.938;4.624;2023-04-07T07:11:16;77517.25;;;-142.75;100.00
41632;BME280;37452;51.938;4.624;2023-04-07T07:13:41;77511.34;;;-142.75;100.00
41632;BME280;37452;51.938;4.624;2023-04-07T07:16:07;77509.38;;;-142.75;100.00
41632;BME280;37452;51.938;4.624;2023-04-07T07:18:32;77531.03;;;-142.75;100.00
41632;BME280;37452;51.938;4.624;2023-04-07T07:20:57;77527.09;;;-142.75;100.00
41632;BME280;37452;51.938;4.624;2023-04-07T07:23:22;77548.75;;;-142.75;100.00
41632;BME280;37452;51.938;4.624;2023-04-07T07:25:48;77552.69;;;-142.75;100.00
41632;BME280;37452;51.938;4.624;2023-04-07T07:28:13;77558.59;;;-142.75;100.00
41632;BME280;37452;51.938;4.624;2023-04-07T07:30:39;77562.53;;;-142.75;100.00
41632;BME280;37452;51.938;4.624;2023-04-07T07:33:05;77562.53;;;-142.75;100.00
41632;BME280;37452;51.938;4.624;2023-04-07T07:35:31;77574.34;;;-142.75;100.00
41632;BME280;37452;51.938;4.624;2023-04-07T07:37:56;77590.09;;;-142.75;100.00
41632;BME280;37452;51.938;4.624;2023-04-07T07:40:22;77578.28;;;-142.75;100.00
41632;BME280;37452;51.938;4.624;2023-04-07T07:42:47;77580.25;;;-142.75;100.00
41632;BME280;37452;51.938;4.624;2023-04-07T07:45:13;77590.09;;;-142.75;100.00
41632;BME280;37452;51.938;4.624;2023-04-07T07:47:39;77578.28;;;-142.75;100.00
41632;BME280;37452;51.938;4.624;2023-04-07T07:50:04;77572.38;;;-142.75;100.00
41632;BME280;37452;51.938;4.624;2023-04-07T07:52:31;77572.38;;;-142.75;100.00
41632;BME280;37452;51.938;4.624;2023-04-07T07:54:56;77560.56;;;-142.75;100.00
41632;BME280;37452;51.938;4.624;2023-04-07T07:57:21;77572.38;;;-142.75;100.00
41632;BME280;37452;51.938;4.624;2023-04-07T07:59:46;77586.16;;;-142.75;100.00
41632;BME280;37452;51.938;4.624;2023-04-07T08:02:12;77570.41;;;-142.75;100.00
41632;BME280;37452;51.938;4.624;2023-04-07T08:04:37;77588.13;;;-142.75;100.00
41632;BME280;37452;51.938;4.624;2023-04-07T08:07:03;77596.00;;;-142.75;100.00
41632;BME280;37452;51.938;4.624;2023-04-07T08:09:28;77601.91;;;-142.75;100.00
41632;BME280;37452;51.938;4.624;2023-04-07T08:11:54;77596.00;;;-142.75;100.00
41632;BME280;37452;51.938;4.624;2023-04-07T08:14:20;77603.88;;;-142.75;100.00
41632;BME280;37452;51.938;4.624;2023-04-07T08:16:45;77601.91;;;-142.75;100.00
41632;BME280;37452;51.938;4.624;2023-04-07T08:19:11;77605.84;;;-142.75;100.00
41632;BME280;37452;51.938;4.624;2023-04-07T08:21:38;77597.97;;;-142.75;100.00
41632;BME280;37452;51.938;4.624;2023-04-07T08:24:03;77617.66;;;-142.75;100.00
41632;BME280;37452;51.938;4.624;2023-04-07T08:26:29;77619.63;;;-142.75;100.00
41632;BME280;37452;51.938;4.624;2023-04-07T08:28:55;77621.59;;;-142.75;100.00
41632;BME280;37452;51.938;4.624;2023-04-07T08:31:20;77623.56;;;-142.75;100.00
41632;BME280;37452;51.938;4.624;2023-04-07T08:33:46;77627.50;;;-142.75;100.00
41632;BME280;37452;51.938;4.624;2023-04-07T08:36:11;77617.66;;;-142.75;100.00
41632;BME280;37452;51.938;4.624;2023-04-07T08:38:37;77605.84;;;-142.75;100.00
41632;BME280;37452;51.938;4.624;2023-04-07T08:41:06;77586.16;;;-142.75;100.00
41632;BME280;37452;51.938;4.624;2023-04-07T08:43:34;77611.75;;;-142.75;100.00
41632;BME280;37452;51.938;4.624;2023-04-07T08:46:01;77592.06;;;-142.75;100.00
41632;BME280;37452;51.938;4.624;2023-04-07T08:48:29;77586.16;;;-142.75;100.00
41632;BME280;37452;51.938;4.624;2023-04-07T08:50:59;77609.78;;;-142.75;100.00
41632;BME280;37452;51.938;4.624;2023-04-07T08:53:47;77601.91;;;-142.75;100.00
41632;BME280;37452;51.938;4.624;2023-04-07T08:56:15;77605.84;;;-142.75;100.00
41632;BME280;37452;51.938;4.624;2023-04-07T08:58:41;77601.91;;;-142.75;100.00
41632;BME280;37452;51.938;4.624;2023-04-07T09:01:08;77596.00;;;-142.75;100.00
41632;BME280;37452;51.938;4.624;2023-04-07T09:03:33;77611.75;;;-142.75;100.00
41632;BME280;37452;51.938;4.624;2023-04-07T09:06:00;77607.81;;;-142.75;100.00
41632;BME280;37452;51.938;4.624;2023-04-07T09:08:26;77605.84;;;-142.75;100.00
41632;BME280;37452;51.938;4.624;2023-04-07T09:10:52;77607.81;;;-142.75;100.00
41632;BME280;37452;51.938;4.624;2023-04-07T09:13:17;77603.88;;;-142.75;100.00
41632;BME280;37452;51.938;4.624;2023-04-07T09:15:43;77603.88;;;-142.75;100.00
41632;BME280;37452;51.938;4.624;2023-04-07T09:18:09;77621.59;;;-142.75;100.00
41632;BME280;37452;51.938;4.624;2023-04-07T09:20:53;77617.66;;;-142.75;100.00
41632;BME280;37452;51.938;4.624;2023-04-07T09:23:30;77613.72;;;-142.75;100.00
41632;BME280;37452;51.938;4.624;2023-04-07T09:25:57;77601.91;;;-142.75;100.00
41632;BME280;37452;51.938;4.624;2023-04-07T09:28:52;77617.66;;;-142.75;100.00
41632;BME280;37452;51.938;4.624;2023-04-07T09:31:19;77615.69;;;-142.75;100.00
41632;BME280;37452;51.938;4.624;2023-04-07T09:33:48;77574.34;;;-142.75;100.00
41632;BME280;37452;51.938;4.624;2023-04-07T09:36:14;77584.19;;;-142.75;100.00
41632;BME280;37452;51.938;4.624;2023-04-07T09:38:42;77558.59;;;-142.75;100.00
41632;BME280;37452;51.938;4.624;2023-04-07T09:41:12;77538.91;;;-142.75;100.00
41632;BME280;37452;51.938;4.624;2023-04-07T09:43:40;77531.03;;;-142.75;100.00
41632;BME280;37452;51.938;4.624;2023-04-07T09:46:13;77542.84;;;-142.75;100.00
41632;BME280;37452;51.938;4.624;2023-04-07T09:48:39;77552.69;;;-142.75;100.00
41632;BME280;37452;51.938;4.624;2023-04-07T09:51:07;77562.53;;;-142.75;100.00
41632;BME280;37452;51.938;4.624;2023-04-07T09:53:49;77590.09;;;-142.75;100.00
41632;BME280;37452;51.938;4.624;2023-04-07T09:56:17;77594.03;;;-142.75;100.00
41632;BME280;37452;51.938;4.624;2023-04-07T09:58:45;77605.84;;;-142.75;100.00
41632;BME280;37452;51.938;4.624;2023-04-07T10:01:11;77605.84;;;-142.75;100.00
41632;BME280;37452;51.938;4.624;2023-04-07T10:03:38;77580.25;;;-142.75;100.00
41632;BME280;37452;51.938;4.624;2023-04-07T10:06:05;77588.13;;;-142.75;100.00
41632;BME280;37452;51.938;4.624;2023-04-07T10:08:33;77568.44;;;-142.75;100.00
41632;BME280;37452;51.938;4.624;2023-04-07T10:11:03;77564.50;;;-142.75;100.00
41632;BME280;37452;51.938;4.624;2023-04-07T10:13:30;77578.28;;;-142.75;100.00
41632;BME280;37452;51.938;4.624;2023-04-07T10:16:02;77568.44;;;-142.75;100.00
41632;BME280;37452;51.938;4.624;2023-04-07T10:18:29;77578.28;;;-142.75;100.00
41632;BME280;37452;51.938;4.624;2023-04-07T10:21:04;77570.41;;;-142.75;100.00
41632;BME280;37452;51.938;4.624;2023-04-07T10:26:16;77590.09;;;-142.75;100.00
41632;BME280;37452;51.938;4.624;2023-04-07T10:28:45;77597.97;;;-142.75;100.00
41632;BME280;37452;51.938;4.624;2023-04-07T10:31:13;77603.88;;;-142.75;100.00
41632;BME280;37452;51.938;4.624;2023-04-07T10:33:47;77617.66;;;-142.75;100.00
41632;BME280;37452;51.938;4.624;2023-04-07T10:36:13;77633.41;;;-142.75;100.00
41632;BME280;37452;51.938;4.624;2023-04-07T10:38:39;77637.34;;;-142.75;100.00
41632;BME280;37452;51.938;4.624;2023-04-07T10:41:45;77633.41;;;-142.75;100.00
41632;BME280;37452;51.938;4.624;2023-04-07T10:47:06;77607.81;;;-142.75;100.00
41632;BME280;37452;51.938;4.624;2023-04-07T10:49:32;77586.16;;;-142.75;100.00
41632;BME280;37452;51.938;4.624;2023-04-07T10:54:36;77607.81;;;-142.75;100.00
41632;BME280;37452;51.938;4.624;2023-04-07T10:59:33;77615.69;;;-142.75;100.00
41632;BME280;37452;51.938;4.624;2023-04-07T11:04:42;77603.88;;;-142.75;100.00
41632;BME280;37452;51.938;4.624;2023-04-07T11:07:08;77613.72;;;-142.75;100.00
41632;BME280;37452;51.938;4.624;2023-04-07T11:09:34;77617.66;;;-142.75;100.00
41632;BME280;37452;51.938;4.624;2023-04-07T11:12:00;77619.63;;;-142.75;100.00
41632;BME280;37452;51.938;4.624;2023-04-07T11:14:30;77605.84;;;-142.75;100.00
41632;BME280;37452;51.938;4.624;2023-04-07T11:16:56;77621.59;;;-142.75;100.00
41632;BME280;37452;51.938;4.624;2023-04-07T11:19:22;77613.72;;;-142.75;100.00
41632;BME280;37452;51.938;4.624;2023-04-07T11:21:48;77615.69;;;-142.75;100.00
41632;BME280;37452;51.938;4.624;2023-04-07T11:24:36;77590.09;;;-142.75;100.00
41632;BME280;37452;51.938;4.624;2023-04-07T11:27:02;77590.09;;;-142.75;100.00
41632;BME280;37452;51.938;4.624;2023-04-07T11:29:31;77586.16;;;-142.75;100.00
41632;BME280;37452;51.938;4.624;2023-04-07T11:31:58;77578.28;;;-142.75;100.00
41632;BME280;37452;51.938;4.624;2023-04-07T11:34:31;77570.41;;;-142.75;100.00
41632;BME280;37452;51.938;4.624;2023-04-07T11:36:57;77601.91;;;-142.75;100.00
41632;BME280;37452;51.938;4.624;2023-04-07T11:39:27;77603.88;;;-142.75;100.00
41632;BME280;37452;51.938;4.624;2023-04-07T11:41:55;77609.78;;;-142.75;100.00
41632;BME280;37452;51.938;4.624;2023-04-07T11:44:21;77623.56;;;-142.75;100.00
41632;BME280;37452;51.938;4.624;2023-04-07T11:46:59;77605.84;;;-142.75;100.00
41632;BME280;37452;51.938;4.624;2023-04-07T11:49:26;77625.53;;;-142.75;100.00
41632;BME280;37452;51.938;4.624;2023-04-07T11:52:05;77615.69;;;-142.75;100.00
41632;BME280;37452;51.938;4.624;2023-04-07T11:54:57;77613.72;;;-142.75;100.00
41632;BME280;37452;51.938;4.624;2023-04-07T11:57:25;77619.63;;;-142.75;100.00
41632;BME280;37452;51.938;4.624;2023-04-07T12:00:07;77605.84;;;-142.75;100.00
41632;BME280;37452;51.938;4.624;2023-04-07T12:02:33;77629.47;;;-142.75;100.00
41632;BME280;37452;51.938;4.624;2023-04-07T12:04:59;77617.66;;;-142.75;100.00
41632;BME280;37452;51.938;4.624;2023-04-07T12:07:24;77635.38;;;-142.75;100.00
41632;BME280;37452;51.938;4.624;2023-04-07T12:09:52;77655.06;;;-142.75;100.00
41632;BME280;37452;51.938;4.624;2023-04-07T12:12:24;77643.25;;;-142.75;100.00
41632;BME280;37452;51.938;4.624;2023-04-07T12:14:51;77660.97;;;-142.75;100.00
41632;BME280;37452;51.938;4.624;2023-04-07T12:17:21;77657.03;;;-142.75;100.00
41632;BME280;37452;51.938;4.624;2023-04-07T12:19:46;77655.06;;;-142.75;100.00
41632;BME280;37452;51.938;4.624;2023-04-07T12:22:11;77633.41;;;-142.75;100.00
41632;BME280;37452;51.938;4.624;2023-04-07T12:24:37;77637.34;;;-142.75;100.00
41632;BME280;37452;51.938;4.624;2023-04-07T12:27:02;77645.22;;;-142.75;100.00
41632;BME280;37452;51.938;4.624;2023-04-07T12:29:28;77633.41;;;-142.75;100.00
41632;BME280;37452;51.938;4.624;2023-04-07T12:31:54;77653.09;;;-142.75;100.00
41632;BME280;37452;51.938;4.624;2023-04-07T12:34:20;77678.69;;;-142.75;100.00
41632;BME280;37452;51.938;4.624;2023-04-07T12:36:45;77672.78;;;-142.75;100.00
41632;BME280;37452;51.938;4.624;2023-04-07T12:39:11;77659.00;;;-142.75;100.00
41632;BME280;37452;51.938;4.624;2023-04-07T12:41:36;77662.94;;;-142.75;100.00
41632;BME280;37452;51.938;4.624;2023-04-07T12:44:03;77633.41;;;-142.75;100.00
41632;BME280;37452;51.938;4.624;2023-04-07T12:46:28;77641.28;;;-142.75;100.00
41632;BME280;37452;51.938;4.624;2023-04-07T12:48:53;77645.22;;;-142.75;100.00
41632;BME280;37452;51.938;4.624;2023-04-07T12:51:19;77649.16;;;-142.75;100.00
41632;BME280;37452;51.938;4.624;2023-04-07T12:53:44;77653.09;;;-142.75;100.00